VDPPVDSV

Guest
Details From VDPP - Phnom Penh Intl
To VDSV - SIHANUKVILLE
Flight Number -
Tags generated
Created
Modified
Stats Distance 92 nm / 170 km
Max Altitude 0 ft / 0 m
Waypoints 3
Social Downloads 5
Likes 0
Share VATSIM

Download

Looking for another format? Having issues loading an existing format? Contact us
Advertisement - Login to hide

Notes

Basic altitude profile: - Ascent Rate: 2500ft/min - Ascent Speed: 250kts - Cruise Altitude: 35000ft - Cruise Speed: 420kts - Descent Rate: 1500ft/min - Descent Speed: 250kts Options: - Use NATs: yes - Use PACOTS: yes - Use low airways: yes - Use high airways: yes

Route

VDPP PNH VDSV

ID Type Via Altitude Latitude Longitude Leg Dist Tot Dist Heading (true) Name
O VDPP APT - 0 ft / 0 m 11.54654˚ 104.84414˚ - 0 nm - Phnom Penh Intl
PNH VOR - 0 ft / 0 m 11.54667˚ 104.84167˚ 0 nm 0 nm 273° / 273° PHNOM PENH VOR-DME
O VDSV APT - 0 ft / 0 m 10.57917˚ 103.63683˚ 91 nm 91 nm 231° / 231° SIHANUKVILLE

Altitude Profile

Advertisement - Login to hide

VDPP

Details ICAO VDPP (PNH)
Name Phnom Penh Intl
Region Cambodia
Timezone Asia/Phnom_Penh (UTC+7.0)
Stats Elevation 40 ft / 12 m (AMSL)
Location 11.546542° 104.844142°
Runways 1
Magnetic Variation 0.493° W

METAR

VDPP 170430Z 01010KT 340V050 9999 FEW017 28/19 Q1015

Decode

TAF

TAF VDPP 162300Z 1700/1718 03008KT 9999 FEW017= TAF VDSR 162300Z 1700/1718 04009KT 9999 FEW017

Decode

Departure Runways

ID Width Length Bearing (true) Bearing (mag) Surface Threshold Offset Overrun Length
05 144 ft / 44 m 9,815 ft / 2,992 m 45.61° 46.10° Asphalt 400 ft / 122 m 0 ft / 0 m
23 144 ft / 44 m 9,815 ft / 2,992 m 225.61° 226.10° Asphalt 492 ft / 150 m 0 ft / 0 m

VDSV

Details ICAO VDSV (KOS)
Name SIHANUKVILLE
Region Cambodia
Timezone Asia/Phnom_Penh (UTC+7.0)
Stats Elevation 33 ft / 10 m (AMSL)
Location 10.579172° 103.636827°
Runways 1
Magnetic Variation 0.390° W

METAR

Not found

TAF

Not found

Destination Runways

ID Width Length Bearing (true) Bearing (mag) Surface Threshold Offset Overrun Length
03 112 ft / 34 m 4,268 ft / 1,301 m 27.47° 27.86° Asphalt 0 ft / 0 m 0 ft / 0 m
21 112 ft / 34 m 4,268 ft / 1,301 m 207.47° 207.86° Asphalt 0 ft / 0 m 0 ft / 0 m

Popular Alternatives